Time;durP1;ratioP1;P1;durP2;ratioP2;P2;SDS_P1;SDS_P2;PMS_P1;PMS_P2;Temp;Humidity;BMP_temperature;BMP_pressure;BME280_temperature;BME280_humidity;BME280_pressure;Samples;Min_cycle;Max_cycle;Signal;HPM_P1;HPM_P2
2023/05/27 00:00:02;;;;;;;7.32;3.78;;;13.10;99.90;;;;;;4999676;28;20033;-80
2023/05/27 00:02:28;;;;;;;6.93;3.17;;;;;;;;;;5037425;23;20076;-82
2023/05/27 00:04:54;;;;;;;15.57;4.50;;;;;;;;;;5038868;28;20073;-81
2023/05/27 00:07:20;;;;;;;7.32;4.13;;;;;;;;;;5038812;28;20048;-79
2023/05/27 00:09:46;;;;;;;9.73;3.33;;;;;;;;;;5039214;28;20030;-80
2023/05/27 00:12:18;;;;;;;10.00;4.47;;;12.90;99.90;;;;;;5038741;28;20010;-80
2023/05/27 00:14:47;;;;;;;9.93;4.10;;;;;;;;;;5038299;28;20014;-78
2023/05/27 00:17:32;;;;;;;11.75;4.47;;;12.80;99.90;;;;;;5037437;28;20046;-79
2023/05/27 00:20:37;;;;;;;7.93;3.95;;;10.90;99.90;;;;;;5022330;28;20010;-81
2023/05/27 00:23:03;;;;;;;13.88;3.90;;;;;;;;;;5023042;23;20079;-81
2023/05/27 00:25:28;;;;;;;5.30;3.10;;;12.80;99.90;;;;;;4999449;28;20027;-79
2023/05/27 00:27:55;;;;;;;7.22;2.80;;;12.90;99.90;;;;;;4999643;28;20022;-79
2023/05/27 00:30:41;;;;;;;11.02;4.00;;;12.80;99.90;;;;;;4983095;28;20011;-79
2023/05/27 00:33:06;;;;;;;9.23;4.05;;;12.80;99.90;;;;;;4982512;28;20035;-80
2023/05/27 00:35:32;;;;;;;11.82;4.68;;;12.80;99.90;;;;;;4994208;28;20018;-79
2023/05/27 00:38:00;;;;;;;11.13;3.35;;;12.70;99.90;;;;;;4997234;28;20073;-79
2023/05/27 00:40:30;;;;;;;9.38;3.40;;;12.70;99.90;;;;;;4994892;28;20013;-80
2023/05/27 00:42:55;;;;;;;8.93;3.72;;;12.70;99.90;;;;;;4995432;28;20054;-80
2023/05/27 00:45:26;;;;;;;5.65;3.60;;;12.70;99.90;;;;;;4992176;28;20014;-80
2023/05/27 00:47:52;;;;;;;6.65;3.97;;;12.60;99.90;;;;;;4981989;28;20527;-78
2023/05/27 00:50:18;;;;;;;8.38;3.78;;;12.50;99.90;;;;;;4972612;28;20031;-79
2023/05/27 00:52:44;;;;;;;7.82;4.07;;;12.40;99.90;;;;;;4972422;28;20054;-78
2023/05/27 00:55:10;;;;;;;9.98;4.35;;;12.40;99.90;;;;;;4956868;28;20022;-79
2023/05/27 00:57:37;;;;;;;11.20;4.45;;;12.40;99.90;;;;;;4972893;28;20069;-79
2023/05/27 01:00:09;;;;;;;12.32;4.15;;;12.30;99.90;;;;;;4973177;28;20019;-78
2023/05/27 01:02:36;;;;;;;6.78;3.88;;;;;;;;;;4971299;28;20443;-79
2023/05/27 01:05:02;;;;;;;8.35;4.50;;;12.30;99.90;;;;;;4971165;28;20058;-78
2023/05/27 01:07:47;;;;;;;10.95;4.22;;;12.30;99.90;;;;;;4971879;28;20514;-78
2023/05/27 01:10:28;;;;;;;8.82;4.15;;;12.30;99.90;;;;;;4972249;28;20027;-78
2023/05/27 01:13:00;;;;;;;14.50;4.03;;;12.20;99.90;;;;;;4955907;28;20037;-78
2023/05/27 01:15:28;;;;;;;11.40;4.68;;;12.10;99.90;;;;;;4955385;28;20023;-78
2023/05/27 01:17:56;;;;;;;5.72;3.83;;;12.10;99.90;;;;;;4955689;28;20062;-78
2023/05/27 01:20:22;;;;;;;9.38;3.80;;;12.00;99.90;;;;;;4956185;28;20023;-78
2023/05/27 01:22:51;;;;;;;8.82;3.75;;;12.00;99.90;;;;;;4973073;28;20050;-78
2023/05/27 01:25:19;;;;;;;17.25;4.03;;;11.90;99.90;;;;;;4972199;28;20038;-79
2023/05/27 01:27:44;;;;;;;8.70;3.33;;;11.90;99.90;;;;;;4954810;28;20037;-78
2023/05/27 01:30:11;;;;;;;12.30;4.07;;;11.90;99.90;;;;;;4971854;28;20431;-79
2023/05/27 01:33:07;;;;;;;9.02;4.95;;;12.00;99.90;;;;;;4954725;28;20039;-79
2023/05/27 01:35:49;;;;;;;8.23;4.30;;;12.00;99.90;;;;;;4962291;28;20027;-79
2023/05/27 01:38:17;;;;;;;8.02;3.92;;;12.10;99.90;;;;;;4954429;28;20042;-79
2023/05/27 01:40:44;;;;;;;8.23;3.58;;;12.10;99.90;;;;;;4955766;28;20371;-79
2023/05/27 01:43:13;;;;;;;12.43;4.18;;;12.00;99.90;;;;;;4956443;28;20043;-79
2023/05/27 01:45:39;;;;;;;10.27;3.42;;;12.00;99.90;;;;;;4956380;28;20027;-78
2023/05/27 01:48:05;;;;;;;18.45;5.15;;;11.90;99.90;;;;;;4955347;28;20131;-79
2023/05/27 01:50:32;;;;;;;6.35;3.60;;;;;;;;;;4954620;28;20048;-78
2023/05/27 01:52:59;;;;;;;9.85;4.93;;;11.90;99.90;;;;;;4970343;28;20023;-79
2023/05/27 01:55:24;;;;;;;12.23;4.00;;;11.80;99.90;;;;;;4954628;28;20110;-78
2023/05/27 01:57:50;;;;;;;6.88;3.55;;;11.80;99.90;;;;;;4970352;28;20174;-79
2023/05/27 02:00:16;;;;;;;15.35;3.97;;;11.70;99.90;;;;;;4970220;28;20117;-78
2023/05/27 02:02:42;;;;;;;9.98;3.20;;;;;;;;;;4971692;28;20022;-78
2023/05/27 02:05:08;;;;;;;10.20;4.15;;;11.70;99.90;;;;;;4970493;28;20034;-79
2023/05/27 02:07:34;;;;;;;11.15;4.90;;;11.70;99.90;;;;;;4971077;28;20492;-78
2023/05/27 02:10:00;;;;;;;15.68;4.28;;;11.60;99.90;;;;;;4968299;28;20033;-78
2023/05/27 02:12:25;;;;;;;8.73;3.42;;;11.50;99.90;;;;;;4968262;28;20375;-78
2023/05/27 02:14:51;;;;;;;14.35;5.03;;;11.50;99.90;;;;;;4970303;28;20489;-78
2023/05/27 02:17:18;;;;;;;9.63;4.32;;;;;;;;;;4973428;28;20041;-78
2023/05/27 02:19:43;;;;;;;8.52;4.25;;;11.30;99.90;;;;;;4972190;28;20118;-78
2023/05/27 02:22:09;;;;;;;13.68;3.60;;;11.30;99.90;;;;;;4972066;28;20138;-79
2023/05/27 02:24:35;;;;;;;16.77;4.78;;;11.20;99.90;;;;;;4971186;28;20038;-78
2023/05/27 02:27:01;;;;;;;6.65;4.13;;;11.20;99.90;;;;;;4974118;28;20465;-79
2023/05/27 02:29:27;;;;;;;20.42;4.38;;;11.20;99.90;;;;;;4955480;28;20025;-78
2023/05/27 02:31:53;;;;;;;7.10;3.65;;;11.20;99.90;;;;;;4972476;28;20019;-78
2023/05/27 02:34:18;;;;;;;13.75;5.10;;;11.20;99.90;;;;;;4973395;28;20070;-78
2023/05/27 02:36:44;;;;;;;11.30;3.80;;;11.30;99.90;;;;;;4973478;28;20030;-78
2023/05/27 02:39:10;;;;;;;9.50;4.40;;;;;;;;;;4972798;28;20097;-79
2023/05/27 02:41:36;;;;;;;9.25;4.45;;;11.30;99.90;;;;;;4974321;28;20475;-78
2023/05/27 02:44:02;;;;;;;10.15;4.72;;;11.40;99.90;;;;;;4973239;28;20038;-78
2023/05/27 02:46:28;;;;;;;11.52;3.90;;;11.40;99.90;;;;;;4973155;28;20027;-78
2023/05/27 02:48:54;;;;;;;8.82;3.45;;;11.40;99.90;;;;;;4974383;28;20034;-78
2023/05/27 02:51:21;;;;;;;14.35;4.40;;;11.30;99.90;;;;;;4956497;28;20061;-78
2023/05/27 02:53:47;;;;;;;13.00;4.10;;;11.30;99.90;;;;;;4956927;28;20447;-79
2023/05/27 02:56:13;;;;;;;11.82;4.15;;;11.20;99.90;;;;;;4972628;28;20549;-79
2023/05/27 02:58:38;;;;;;;11.70;3.85;;;11.20;99.90;;;;;;4973041;28;20034;-79
2023/05/27 03:01:04;;;;;;;12.82;4.03;;;11.20;99.90;;;;;;4973826;28;20023;-78
2023/05/27 03:03:30;;;;;;;12.40;4.80;;;11.10;99.90;;;;;;4972584;28;20395;-78
2023/05/27 03:05:56;;;;;;;7.00;3.85;;;11.10;99.90;;;;;;4973008;28;20386;-78
2023/05/27 03:08:21;;;;;;;9.27;4.15;;;11.10;99.90;;;;;;4972372;28;20074;-78
2023/05/27 03:10:47;;;;;;;9.88;5.47;;;11.10;99.90;;;;;;4973934;28;20029;-78
2023/05/27 03:13:13;;;;;;;8.10;4.40;;;11.00;99.90;;;;;;4972900;28;20369;-78
2023/05/27 03:15:39;;;;;;;8.57;3.78;;;11.00;99.90;;;;;;4974259;28;20026;-78
2023/05/27 03:18:05;;;;;;;11.80;3.78;;;10.90;99.90;;;;;;4974059;28;20391;-78
2023/05/27 03:20:31;;;;;;;7.25;4.20;;;10.80;99.90;;;;;;4956216;28;20480;-78
2023/05/27 03:22:56;;;;;;;10.98;4.35;;;10.80;99.90;;;;;;4959072;28;20049;-79
2023/05/27 03:25:22;;;;;;;10.75;3.75;;;10.60;99.90;;;;;;4982464;28;20026;-79
2023/05/27 03:27:48;;;;;;;16.08;4.93;;;10.60;99.90;;;;;;4965046;28;20074;-79
2023/05/27 03:30:14;;;;;;;17.80;5.32;;;10.50;99.90;;;;;;4979320;28;20511;-79
2023/05/27 03:32:40;;;;;;;10.95;4.22;;;10.50;99.90;;;;;;4978080;28;20515;-78
2023/05/27 03:35:06;;;;;;;10.35;4.38;;;10.50;99.90;;;;;;4974661;28;20116;-79
2023/05/27 03:37:32;;;;;;;13.20;5.30;;;10.50;99.90;;;;;;4959486;28;20483;-77
2023/05/27 03:39:57;;;;;;;9.05;4.25;;;10.50;99.90;;;;;;4976177;28;20435;-78
2023/05/27 03:42:23;;;;;;;9.88;3.58;;;10.50;99.90;;;;;;4974107;28;20528;-77
2023/05/27 03:44:50;;;;;;;10.95;3.90;;;10.40;99.90;;;;;;4973791;28;20594;-78
2023/05/27 03:47:20;;;;;;;10.68;4.15;;;10.30;99.90;;;;;;4957082;28;20018;-78
2023/05/27 03:49:45;;;;;;;;;;;10.30;99.90;;;;;;4972551;28;20121;-78
2023/05/27 03:52:11;;;;;;;7.65;4.10;;;10.30;99.90;;;;;;4973051;28;20398;-79
2023/05/27 03:54:37;;;;;;;12.90;4.35;;;10.20;99.90;;;;;;4956033;28;20518;-78
2023/05/27 03:57:02;;;;;;;12.13;5.03;;;10.20;99.90;;;;;;4974421;28;20114;-79
2023/05/27 03:59:29;;;;;;;6.78;4.88;;;10.20;99.90;;;;;;4974040;28;20070;-78
2023/05/27 04:01:55;;;;;;;8.65;3.75;;;10.30;99.90;;;;;;4956541;28;20558;-77
2023/05/27 04:04:21;;;;;;;12.10;4.63;;;10.40;99.90;;;;;;4971618;28;20046;-78
2023/05/27 04:06:47;;;;;;;15.63;4.38;;;10.30;99.90;;;;;;4974220;28;20023;-78
2023/05/27 04:09:12;;;;;;;13.93;4.53;;;10.40;99.90;;;;;;4973248;28;20484;-78
2023/05/27 04:11:38;;;;;;;13.05;4.15;;;10.50;99.90;;;;;;4971254;28;20082;-78
2023/05/27 04:14:06;;;;;;;8.40;3.67;;;10.50;99.90;;;;;;4955303;28;20111;-78
2023/05/27 04:16:33;;;;;;;9.48;4.60;;;;;;;;;;4971111;28;20113;-78
2023/05/27 04:18:59;;;;;;;17.33;5.25;;;10.70;99.90;;;;;;4971471;28;20046;-78
2023/05/27 04:21:25;;;;;;;11.25;4.20;;;10.80;99.90;;;;;;4972453;28;20522;-79
2023/05/27 04:23:51;;;;;;;14.73;4.53;;;11.00;99.90;;;;;;4955052;28;20086;-78
2023/05/27 04:26:16;;;;;;;13.48;3.85;;;11.00;99.90;;;;;;4956983;28;20050;-78
2023/05/27 04:28:45;;;;;;;10.73;3.83;;;11.20;99.90;;;;;;4973366;28;20439;-78
2023/05/27 04:31:12;;;;;;;15.18;4.22;;;11.20;99.90;;;;;;4955848;28;20062;-77
2023/05/27 04:33:44;;;;;;;9.07;4.32;;;11.40;99.90;;;;;;4973697;28;20034;-79
2023/05/27 04:36:11;;;;;;;10.88;4.32;;;11.50;99.90;;;;;;4973514;28;20488;-78
2023/05/27 04:38:37;;;;;;;9.32;4.38;;;11.60;99.90;;;;;;4973903;28;20035;-79
2023/05/27 04:41:03;;;;;;;8.38;3.33;;;11.90;99.90;;;;;;4956501;28;20058;-78
2023/05/27 04:43:30;;;;;;;8.45;3.88;;;12.20;99.90;;;;;;4956354;28;20118;-79
2023/05/27 04:45:59;;;;;;;4.57;3.47;;;12.30;99.90;;;;;;4971782;28;20472;-79
2023/05/27 04:48:25;;;;;;;;;;;12.40;99.90;;;;;;4973709;28;20110;-79
2023/05/27 04:50:52;;;;;;;7.40;3.30;;;12.50;99.90;;;;;;4970908;28;20466;-78
2023/05/27 04:53:18;;;;;;;13.13;4.70;;;12.40;99.90;;;;;;4970451;28;20077;-78
2023/05/27 04:55:45;;;;;;;10.88;4.07;;;12.40;99.90;;;;;;4971445;28;20438;-79
2023/05/27 04:58:12;;;;;;;11.57;3.90;;;12.30;99.90;;;;;;4973909;28;20089;-79
2023/05/27 05:00:38;;;;;;;13.60;3.75;;;12.30;99.90;;;;;;4956103;28;20051;-79
2023/05/27 05:03:06;;;;;;;10.70;4.13;;;12.40;99.90;;;;;;4955726;28;20260;-77
2023/05/27 05:05:32;;;;;;;14.68;4.30;;;12.40;99.90;;;;;;4971950;28;20311;-79
2023/05/27 05:07:58;;;;;;;9.07;3.25;;;12.40;99.90;;;;;;4971108;28;20256;-78
2023/05/27 05:10:26;;;;;;;10.43;3.70;;;12.40;99.90;;;;;;4954720;28;20078;-79
2023/05/27 05:12:52;;;;;;;7.60;3.25;;;12.50;99.90;;;;;;4971586;28;20517;-77
2023/05/27 05:15:18;;;;;;;7.30;4.97;;;12.50;99.90;;;;;;4955181;28;20019;-78
2023/05/27 05:17:43;;;;;;;10.48;3.95;;;12.60;99.90;;;;;;4955239;28;20030;-78
2023/05/27 05:20:10;;;;;;;14.85;3.60;;;12.70;99.90;;;;;;4972235;28;20216;-78
2023/05/27 05:22:36;;;;;;;12.45;4.05;;;12.70;99.90;;;;;;4954627;28;20058;-79
2023/05/27 05:25:01;;;;;;;8.63;3.88;;;12.80;99.90;;;;;;4954258;28;20030;-78
2023/05/27 05:27:28;;;;;;;16.02;4.15;;;12.80;99.90;;;;;;4973497;28;20023;-78
2023/05/27 05:29:54;;;;;;;12.13;3.45;;;12.90;99.90;;;;;;4954701;28;20031;-78
2023/05/27 05:32:20;;;;;;;11.32;4.65;;;13.10;99.90;;;;;;4971568;28;20078;-78
2023/05/27 05:34:45;;;;;;;14.25;4.57;;;13.10;99.90;;;;;;4971226;28;20027;-78
2023/05/27 05:37:11;;;;;;;14.02;4.43;;;13.10;99.90;;;;;;4971568;28;20153;-78
2023/05/27 05:39:37;;;;;;;12.77;4.60;;;13.20;99.90;;;;;;4969459;28;20031;-77
2023/05/27 05:42:03;;;;;;;11.90;4.20;;;13.20;99.90;;;;;;4971195;28;20503;-78
2023/05/27 05:44:29;;;;;;;11.63;4.00;;;13.30;99.90;;;;;;4971228;28;20030;-78
2023/05/27 05:46:55;;;;;;;11.93;4.40;;;13.50;99.90;;;;;;4953659;28;20030;-78
2023/05/27 05:49:20;;;;;;;10.45;4.28;;;13.40;99.90;;;;;;4954456;28;20022;-79
2023/05/27 05:51:46;;;;;;;11.32;4.35;;;13.40;99.90;;;;;;4975280;28;20336;-78
2023/05/27 05:54:12;;;;;;;12.82;4.60;;;13.40;99.90;;;;;;4957312;28;20027;-79
2023/05/27 05:56:37;;;;;;;10.52;4.22;;;13.40;99.90;;;;;;4957747;28;20639;-78
2023/05/27 05:59:03;;;;;;;14.07;5.38;;;13.50;99.90;;;;;;4958085;28;20031;-78
2023/05/27 06:01:29;;;;;;;13.38;4.35;;;13.50;99.90;;;;;;4975136;28;20069;-79
2023/05/27 06:03:56;;;;;;;10.63;4.35;;;13.70;99.90;;;;;;4974422;28;20027;-78
2023/05/27 06:06:22;;;;;;;11.88;4.43;;;13.90;99.90;;;;;;4974291;28;20027;-78
2023/05/27 06:08:47;;;;;;;8.68;4.47;;;14.20;99.90;;;;;;4974168;28;20031;-78
2023/05/27 06:11:13;;;;;;;12.45;4.65;;;14.50;99.90;;;;;;4973701;28;20631;-78
2023/05/27 06:13:40;;;;;;;9.48;4.30;;;15.00;99.90;;;;;;4974798;28;20114;-78
2023/05/27 06:16:06;;;;;;;10.25;4.22;;;15.10;99.90;;;;;;4973533;28;20029;-78
2023/05/27 06:18:31;;;;;;;11.43;4.20;;;14.90;99.90;;;;;;4973307;28;20039;-78
2023/05/27 06:20:57;;;;;;;12.32;4.22;;;14.60;99.90;;;;;;4957274;28;20027;-78
2023/05/27 06:23:23;;;;;;;15.30;3.70;;;14.50;99.90;;;;;;4973094;28;20078;-79
2023/05/27 06:25:48;;;;;;;14.13;4.50;;;14.50;99.90;;;;;;4956658;28;20059;-78
2023/05/27 06:28:14;;;;;;;9.35;4.07;;;14.40;99.90;;;;;;4974301;28;20437;-78
2023/05/27 06:30:41;;;;;;;14.65;4.50;;;14.40;99.90;;;;;;4973254;28;20019;-77
2023/05/27 06:33:07;;;;;;;13.07;4.20;;;14.40;99.90;;;;;;4956885;28;20030;-78
2023/05/27 06:35:32;;;;;;;14.27;3.72;;;14.50;99.90;;;;;;4957245;28;20027;-78
2023/05/27 06:37:59;;;;;;;10.55;3.53;;;14.70;99.90;;;;;;4957447;28;20070;-78
2023/05/27 06:40:25;;;;;;;12.57;4.38;;;15.10;99.90;;;;;;4972996;28;20023;-78
2023/05/27 06:42:50;;;;;;;10.98;4.68;;;16.90;99.90;;;;;;4972536;28;20027;-78
2023/05/27 06:45:16;;;;;;;12.52;5.00;;;16.90;99.90;;;;;;4956523;28;20480;-78
2023/05/27 06:47:42;;;;;;;13.73;5.05;;;17.60;99.90;;;;;;4956656;28;20097;-79
2023/05/27 06:50:08;;;;;;;12.60;4.65;;;18.20;98.60;;;;;;4974255;28;20483;-79
2023/05/27 06:52:33;;;;;;;12.13;3.65;;;18.50;95.80;;;;;;4972941;28;20694;-78
2023/05/27 06:54:59;;;;;;;13.65;4.55;;;19.00;92.90;;;;;;4973537;28;20031;-78
2023/05/27 06:57:24;;;;;;;10.45;4.50;;;19.40;92.00;;;;;;4955989;28;20082;-78
2023/05/27 06:59:50;;;;;;;8.05;4.60;;;20.10;85.90;;;;;;4973816;28;20066;-78
2023/05/27 07:02:16;;;;;;;9.38;3.88;;;19.80;83.60;;;;;;4972230;28;20084;-78
2023/05/27 07:04:41;;;;;;;14.75;3.95;;;19.60;84.00;;;;;;4960348;28;20480;-79
2023/05/27 07:07:07;;;;;;;10.40;3.63;;;19.80;83.30;;;;;;4979895;28;20038;-79
2023/05/27 07:09:33;;;;;;;11.60;5.20;;;19.50;83.00;;;;;;4978094;28;20031;-79
2023/05/27 07:12:00;;;;;;;10.90;3.97;;;19.40;83.40;;;;;;4976676;28;20114;-79
2023/05/27 07:14:25;;;;;;;9.73;4.13;;;19.40;84.00;;;;;;4972528;28;20022;-79
2023/05/27 07:16:52;;;;;;;14.95;5.28;;;19.80;83.20;;;;;;4973484;28;20035;-78
2023/05/27 07:19:17;;;;;;;8.88;3.72;;;19.90;80.30;;;;;;4960482;28;20122;-77
2023/05/27 07:21:43;;;;;;;12.40;4.43;;;19.50;80.70;;;;;;4983161;28;20023;-79
2023/05/27 07:24:10;;;;;;;10.73;4.75;;;;;;;;;;4982846;28;20334;-79
2023/05/27 07:26:36;;;;;;;10.80;4.63;;;20.10;79.80;;;;;;4983151;28;20021;-78
2023/05/27 07:29:02;;;;;;;10.25;3.92;;;20.00;81.60;;;;;;4975511;28;20451;-78
2023/05/27 07:31:28;;;;;;;10.48;3.95;;;20.20;81.50;;;;;;4973467;28;20031;-78
2023/05/27 07:33:54;;;;;;;17.73;4.65;;;20.20;79.10;;;;;;4973900;28;20029;-78
2023/05/27 07:36:20;;;;;;;18.83;4.70;;;19.90;82.70;;;;;;4956503;28;20027;-78
2023/05/27 07:38:46;;;;;;;11.40;5.03;;;20.10;80.10;;;;;;4972315;28;20041;-78
2023/05/27 07:41:12;;;;;;;8.43;3.95;;;20.10;80.80;;;;;;4972639;28;20030;-78
2023/05/27 07:43:39;;;;;;;11.07;4.93;;;19.80;79.10;;;;;;4974237;28;20026;-78
2023/05/27 07:46:05;;;;;;;7.30;3.70;;;19.80;79.70;;;;;;4956664;28;20026;-78
2023/05/27 07:48:31;;;;;;;7.10;3.97;;;20.00;82.60;;;;;;4974035;28;20334;-78
2023/05/27 07:50:57;;;;;;;15.85;5.18;;;;;;;;;;4979175;28;20135;-77
2023/05/27 07:53:22;;;;;;;10.30;4.60;;;20.50;78.80;;;;;;4982606;28;20026;-79
2023/05/27 07:55:48;;;;;;;12.43;4.53;;;20.40;80.20;;;;;;4983566;28;20091;-79
2023/05/27 07:58:14;;;;;;;22.52;5.53;;;20.00;79.30;;;;;;4982479;28;20322;-77
2023/05/27 08:00:39;;;;;;;8.93;4.07;;;20.30;79.80;;;;;;4983859;28;20027;-78
2023/05/27 08:03:05;;;;;;;12.38;4.78;;;20.40;78.70;;;;;;4983708;28;20327;-78
2023/05/27 08:05:32;;;;;;;14.55;4.55;;;20.40;78.60;;;;;;4983792;28;20374;-78
2023/05/27 08:07:58;;;;;;;14.25;5.30;;;21.20;79.20;;;;;;4956760;28;20530;-77
2023/05/27 08:10:24;;;;;;;11.80;4.50;;;20.60;78.00;;;;;;4972279;28;20444;-76
2023/05/27 08:12:50;;;;;;;9.80;4.38;;;21.10;78.30;;;;;;4954068;28;20035;-78
2023/05/27 08:15:15;;;;;;;11.73;4.60;;;21.10;76.10;;;;;;4976170;28;20034;-79
2023/05/27 08:17:43;;;;;;;10.10;4.07;;;21.50;75.80;;;;;;4980302;28;20038;-78
2023/05/27 08:20:09;;;;;;;10.25;4.05;;;21.90;73.40;;;;;;4975781;28;20029;-77
2023/05/27 08:22:35;;;;;;;16.52;4.57;;;22.10;74.20;;;;;;4958908;28;20074;-78
2023/05/27 08:25:01;;;;;;;12.18;4.55;;;21.80;74.20;;;;;;4977375;28;20066;-79
2023/05/27 08:28:01;;;;;;;11.68;4.80;;;21.30;73.10;;;;;;4962013;28;20118;-77
2023/05/27 08:30:30;;;;;;;11.43;4.05;;;21.40;75.20;;;;;;4967484;28;20034;-78
2023/05/27 08:32:56;;;;;;;9.82;5.05;;;24.10;74.60;;;;;;4964120;28;20057;-78
2023/05/27 08:35:22;;;;;;;11.30;5.47;;;21.00;72.30;;;;;;4976660;28;20389;-78
2023/05/27 08:37:48;;;;;;;10.57;4.95;;;20.80;74.80;;;;;;4965891;28;20192;-78
2023/05/27 08:40:15;;;;;;;10.63;5.65;;;20.40;75.70;;;;;;4959968;28;20030;-78
2023/05/27 08:42:41;;;;;;;9.90;5.13;;;19.90;74.50;;;;;;4967398;28;20035;-78
2023/05/27 08:45:11;;;;;;;13.20;5.15;;;20.40;75.80;;;;;;4970957;28;20475;-78
2023/05/27 08:47:38;;;;;;;13.55;5.65;;;20.40;75.00;;;;;;4971487;28;20427;-78
2023/05/27 08:50:05;;;;;;;14.30;5.65;;;20.70;74.00;;;;;;4963403;28;20051;-77
2023/05/27 08:52:32;;;;;;;13.02;4.88;;;20.70;75.40;;;;;;4951706;29;20062;-78
2023/05/27 08:54:59;;;;;;;9.27;4.03;;;20.90;73.20;;;;;;4953818;28;20263;-78
2023/05/27 08:57:28;;;;;;;10.35;4.78;;;20.90;73.80;;;;;;4965153;28;20030;-78
2023/05/27 08:59:55;;;;;;;19.92;5.00;;;21.40;72.60;;;;;;4963636;28;20050;-78
2023/05/27 09:02:23;;;;;;;11.57;4.68;;;21.20;72.70;;;;;;4980197;28;20228;-76
2023/05/27 09:04:50;;;;;;;9.77;4.10;;;21.00;73.70;;;;;;4964464;28;20023;-77
2023/05/27 09:07:15;;;;;;;11.60;4.68;;;21.10;72.50;;;;;;4962127;29;20023;-78
2023/05/27 09:09:43;;;;;;;11.05;4.88;;;21.30;71.00;;;;;;4941861;29;20560;-79
2023/05/27 09:12:09;;;;;;;11.88;4.68;;;21.20;71.60;;;;;;4956550;29;20051;-78
2023/05/27 09:14:38;;;;;;;13.45;5.45;;;21.20;71.90;;;;;;4944707;29;20026;-78
2023/05/27 09:17:07;;;;;;;;;;;21.50;71.20;;;;;;4960561;28;20031;-78
2023/05/27 09:19:33;;;;;;;15.70;4.43;;;18.30;69.10;;;;;;4976848;28;19910;-79
2023/05/27 09:21:59;;;;;;;14.18;4.97;;;20.80;74.00;;;;;;4960771;28;20102;-78
2023/05/27 09:24:25;;;;;;;12.07;5.35;;;21.20;74.30;;;;;;4961609;28;20047;-78
2023/05/27 09:26:52;;;;;;;12.73;4.88;;;21.10;72.40;;;;;;4954578;28;20081;-77
2023/05/27 09:29:23;;;;;;;10.23;4.55;;;21.50;71.10;;;;;;4963631;28;20129;-78
2023/05/27 09:31:57;;;;;;;11.82;5.05;;;21.60;74.30;;;;;;4968231;28;20027;-77
2023/05/27 09:34:22;;;;;;;12.43;5.63;;;21.80;69.90;;;;;;4951257;28;20030;-78
2023/05/27 09:36:50;;;;;;;10.82;4.80;;;22.20;68.70;;;;;;4950539;28;20019;-77
2023/05/27 09:39:17;;;;;;;7.90;4.70;;;22.70;68.20;;;;;;4953697;28;20503;-79
2023/05/27 09:41:49;;;;;;;13.27;5.50;;;22.00;69.50;;;;;;4971181;28;20027;-78
2023/05/27 09:44:15;;;;;;;17.60;5.45;;;22.40;67.40;;;;;;4964480;28;20058;-77
2023/05/27 09:46:44;;;;;;;8.18;4.63;;;22.50;67.80;;;;;;4966921;28;20303;-77
2023/05/27 09:49:10;;;;;;;13.85;5.47;;;22.40;67.70;;;;;;4965557;28;20319;-78
2023/05/27 09:51:39;;;;;;;9.02;4.47;;;22.20;69.50;;;;;;4965647;28;20027;-77
2023/05/27 09:54:06;;;;;;;12.52;4.95;;;22.50;71.20;;;;;;4972040;28;20019;-79
2023/05/27 09:56:32;;;;;;;10.93;4.13;;;23.20;68.90;;;;;;4972661;28;20031;-77
2023/05/27 09:58:58;;;;;;;6.40;3.80;;;24.20;67.70;;;;;;4972938;28;20034;-78
2023/05/27 10:01:29;;;;;;;6.10;3.47;;;24.10;63.60;;;;;;4958726;28;20089;-78
2023/05/27 10:03:58;;;;;;;10.63;4.07;;;24.00;68.00;;;;;;4955374;28;20069;-77
2023/05/27 10:06:25;;;;;;;16.65;5.55;;;24.10;67.80;;;;;;4970973;28;20098;-78
2023/05/27 10:08:55;;;;;;;11.13;4.20;;;23.30;64.30;;;;;;4945810;28;20453;-78
2023/05/27 10:11:21;;;;;;;19.05;4.68;;;22.80;65.70;;;;;;4962456;28;20023;-78
2023/05/27 10:13:48;;;;;;;10.50;4.63;;;23.10;66.00;;;;;;4953327;28;20041;-78
2023/05/27 10:16:26;;;;;;;8.40;4.53;;;23.20;66.30;;;;;;4970552;28;20130;-79
2023/05/27 10:18:56;;;;;;;11.55;4.60;;;23.30;65.40;;;;;;4975118;28;20041;-78
2023/05/27 10:21:25;;;;;;;10.75;4.15;;;23.30;66.70;;;;;;4976258;28;20026;-79
2023/05/27 10:24:02;;;;;;;7.07;4.32;;;23.70;65.00;;;;;;4970702;28;20046;-78
2023/05/27 10:26:39;;;;;;;9.50;4.30;;;23.60;65.30;;;;;;4971875;28;20085;-78
2023/05/27 10:29:16;;;;;;;12.82;4.30;;;24.20;64.20;;;;;;4970529;28;20431;-78
2023/05/27 10:31:52;;;;;;;11.95;3.78;;;24.20;64.30;;;;;;4969402;28;20027;-79
2023/05/27 10:34:18;;;;;;;10.02;4.75;;;23.70;64.00;;;;;;4969384;28;20031;-78
2023/05/27 10:36:45;;;;;;;10.18;4.20;;;23.70;65.80;;;;;;4972202;28;20463;-77
2023/05/27 10:39:17;;;;;;;8.88;4.20;;;23.70;64.90;;;;;;4982390;28;20034;-79
2023/05/27 10:41:49;;;;;;;12.50;4.82;;;23.60;64.20;;;;;;4977551;28;20062;-79
2023/05/27 10:44:30;;;;;;;11.68;4.82;;;24.20;64.20;;;;;;4983155;28;20026;-78
2023/05/27 10:47:00;;;;;;;8.40;4.07;;;24.10;61.80;;;;;;4983779;28;20019;-79
2023/05/27 10:49:35;;;;;;;10.48;4.43;;;25.40;62.00;;;;;;4963409;28;20037;-77
2023/05/27 10:52:12;;;;;;;9.20;4.38;;;26.00;61.30;;;;;;4981331;28;20259;-80
2023/05/27 10:54:52;;;;;;;12.45;4.93;;;25.60;60.40;;;;;;4980925;28;20459;-78
2023/05/27 10:57:19;;;;;;;14.73;4.32;;;;;;;;;;4956906;28;20023;-79
2023/05/27 10:59:49;;;;;;;9.00;4.07;;;25.50;60.30;;;;;;4972345;28;20395;-76
2023/05/27 11:02:16;;;;;;;9.82;4.03;;;;;;;;;;4973717;28;20522;-78
2023/05/27 11:04:42;;;;;;;9.57;4.32;;;;;;;;;;4975866;28;20085;-77
2023/05/27 11:07:08;;;;;;;11.13;4.82;;;25.40;60.60;;;;;;4972699;28;20077;-78
2023/05/27 11:09:47;;;;;;;12.45;4.57;;;24.90;62.40;;;;;;4963139;28;20031;-75
2023/05/27 11:12:17;;;;;;;12.10;4.95;;;25.10;62.60;;;;;;4963592;28;20311;-77
2023/05/27 11:14:44;;;;;;;6.45;3.75;;;25.00;64.00;;;;;;4963574;28;20031;-76
2023/05/27 11:17:13;;;;;;;10.50;4.10;;;25.50;60.90;;;;;;4964393;28;20035;-75
2023/05/27 11:19:40;;;;;;;9.77;4.03;;;25.80;61.60;;;;;;4948835;28;20058;-77
2023/05/27 11:22:13;;;;;;;20.75;5.05;;;25.30;61.50;;;;;;4974884;28;20035;-77
2023/05/27 11:24:40;;;;;;;9.77;4.28;;;25.30;61.90;;;;;;4958599;28;20031;-76
2023/05/27 11:27:10;;;;;;;9.90;4.50;;;25.40;61.60;;;;;;4968978;28;20029;-75
2023/05/27 11:29:37;;;;;;;13.38;5.15;;;25.70;61.40;;;;;;4942909;28;20023;-77
2023/05/27 11:32:05;;;;;;;9.52;4.60;;;26.20;61.90;;;;;;4967233;28;20027;-76
2023/05/27 11:34:33;;;;;;;7.50;4.82;;;26.30;60.20;;;;;;4967130;28;20011;-74
2023/05/27 11:37:05;;;;;;;9.40;4.47;;;26.60;59.40;;;;;;4977804;28;20684;-76
2023/05/27 11:39:32;;;;;;;9.88;4.43;;;26.80;59.60;;;;;;4963861;28;20301;-79
2023/05/27 11:41:58;;;;;;;10.15;4.63;;;;;;;;;;4956214;28;20025;-78
2023/05/27 11:44:25;;;;;;;7.35;4.20;;;27.20;56.90;;;;;;4968888;28;20055;-77
2023/05/27 11:46:52;;;;;;;9.00;4.40;;;26.60;59.30;;;;;;4974482;28;20057;-75
2023/05/27 11:49:19;;;;;;;6.32;4.05;;;26.50;58.00;;;;;;4975260;28;20037;-79
2023/05/27 11:51:47;;;;;;;12.00;4.85;;;27.00;58.30;;;;;;4965065;28;20027;-80
2023/05/27 11:54:27;;;;;;;8.65;4.28;;;27.90;58.80;;;;;;4951432;28;20034;-79
2023/05/27 11:56:55;;;;;;;8.85;3.95;;;26.80;57.60;;;;;;4961699;28;20132;-77
2023/05/27 11:59:22;;;;;;;11.80;4.38;;;26.90;56.50;;;;;;4970425;28;20035;-79
2023/05/27 12:01:53;;;;;;;13.25;4.35;;;27.00;57.60;;;;;;4958520;28;20034;-76
2023/05/27 12:04:19;;;;;;;9.18;4.68;;;27.40;56.30;;;;;;4966728;28;20118;-75
2023/05/27 12:06:45;;;;;;;7.43;4.00;;;27.70;56.90;;;;;;4964468;28;20158;-78
2023/05/27 12:09:11;;;;;;;7.55;4.70;;;;;;;;;;4971412;28;20053;-76
2023/05/27 12:11:38;;;;;;;7.65;3.83;;;27.00;57.40;;;;;;4969286;28;20365;-77
2023/05/27 12:14:04;;;;;;;16.42;5.68;;;;;;;;;;4962173;28;20035;-77
2023/05/27 12:16:30;;;;;;;5.90;3.45;;;27.30;55.50;;;;;;4957058;28;20031;-79
2023/05/27 12:18:57;;;;;;;7.35;3.92;;;27.60;58.10;;;;;;4954055;28;20358;-76
2023/05/27 12:21:22;;;;;;;9.52;3.92;;;27.60;55.50;;;;;;4964622;28;20026;-76
2023/05/27 12:23:49;;;;;;;6.43;3.97;;;;;;;;;;4968204;28;20055;-78
2023/05/27 12:26:16;;;;;;;19.58;4.88;;;27.30;56.80;;;;;;4977366;28;20046;-76
2023/05/27 12:28:42;;;;;;;9.07;3.95;;;;;;;;;;4957580;28;20058;-76
2023/05/27 12:31:08;;;;;;;9.32;4.30;;;26.20;60.30;;;;;;4935868;28;20319;-76
2023/05/27 12:33:34;;;;;;;9.70;3.95;;;25.80;59.40;;;;;;4950829;28;20059;-77
2023/05/27 12:36:01;;;;;;;8.35;4.53;;;25.20;60.40;;;;;;4961667;28;20082;-76
2023/05/27 12:38:27;;;;;;;13.68;4.93;;;25.00;60.60;;;;;;4955260;28;20066;-76
2023/05/27 12:40:55;;;;;;;9.50;4.35;;;25.40;59.90;;;;;;4971246;28;20417;-75
2023/05/27 12:43:21;;;;;;;9.13;4.05;;;25.60;59.60;;;;;;4952142;28;20510;-75
2023/05/27 12:45:46;;;;;;;7.03;3.72;;;26.00;59.60;;;;;;4963815;28;20058;-77
2023/05/27 12:48:13;;;;;;;5.38;3.35;;;25.90;60.00;;;;;;4949577;28;20027;-78